sensor_id;sensor_type;location;lat;lon;timestamp;noise_LAeq;noise_LA_min;noise_LA_max;noise_LA01;noise_LA95
68599;Laerm;18038;50.166;18.908;2023-03-23T00:02:43;48.31;46.95;56.68;;
68599;Laerm;18038;50.166;18.908;2023-03-23T00:05:54;48.58;47.07;56.04;;
68599;Laerm;18038;50.166;18.908;2023-03-23T00:09:02;48.30;47.01;50.67;;
68599;Laerm;18038;50.166;18.908;2023-03-23T00:12:09;48.23;47.04;49.73;;
68599;Laerm;18038;50.166;18.908;2023-03-23T00:15:18;48.28;47.05;50.07;;
68599;Laerm;18038;50.166;18.908;2023-03-23T00:18:29;48.53;46.86;54.72;;
68599;Laerm;18038;50.166;18.908;2023-03-23T00:21:39;48.23;46.73;50.24;;
68599;Laerm;18038;50.166;18.908;2023-03-23T00:24:48;48.58;47.06;53.15;;
68599;Laerm;18038;50.166;18.908;2023-03-23T00:27:54;48.54;47.00;54.81;;
68599;Laerm;18038;50.166;18.908;2023-03-23T00:31:07;48.22;46.92;49.78;;
68599;Laerm;18038;50.166;18.908;2023-03-23T00:34:19;48.23;46.73;50.39;;
68599;Laerm;18038;50.166;18.908;2023-03-23T00:37:28;48.23;47.03;49.79;;
68599;Laerm;18038;50.166;18.908;2023-03-23T00:40:35;48.66;46.91;55.90;;
68599;Laerm;18038;50.166;18.908;2023-03-23T00:43:42;48.36;47.03;54.95;;
68599;Laerm;18038;50.166;18.908;2023-03-23T00:46:55;49.00;46.96;62.68;;
68599;Laerm;18038;50.166;18.908;2023-03-23T00:50:02;48.64;46.93;65.80;;
68599;Laerm;18038;50.166;18.908;2023-03-23T00:53:10;48.54;47.03;56.84;;
68599;Laerm;18038;50.166;18.908;2023-03-23T00:56:17;48.51;46.73;55.21;;
68599;Laerm;18038;50.166;18.908;2023-03-23T00:59:24;48.27;46.93;56.35;;
68599;Laerm;18038;50.166;18.908;2023-03-23T01:02:31;48.41;46.68;56.12;;
68599;Laerm;18038;50.166;18.908;2023-03-23T01:05:40;48.52;46.98;57.09;;
68599;Laerm;18038;50.166;18.908;2023-03-23T01:08:49;48.74;47.07;67.12;;
68599;Laerm;18038;50.166;18.908;2023-03-23T01:12:00;48.27;47.04;53.47;;
68599;Laerm;18038;50.166;18.908;2023-03-23T01:15:16;48.53;47.14;56.55;;
68599;Laerm;18038;50.166;18.908;2023-03-23T01:18:23;48.87;46.75;66.64;;
68599;Laerm;18038;50.166;18.908;2023-03-23T01:21:37;48.62;47.08;61.66;;
68599;Laerm;18038;50.166;18.908;2023-03-23T01:24:49;48.59;47.03;60.78;;
68599;Laerm;18038;50.166;18.908;2023-03-23T01:27:57;48.65;46.91;56.84;;
68599;Laerm;18038;50.166;18.908;2023-03-23T01:31:07;48.37;46.95;56.85;;
68599;Laerm;18038;50.166;18.908;2023-03-23T01:34:17;48.34;46.93;54.40;;
68599;Laerm;18038;50.166;18.908;2023-03-23T01:37:23;48.82;46.87;56.76;;
68599;Laerm;18038;50.166;18.908;2023-03-23T01:40:34;48.62;47.14;62.51;;
68599;Laerm;18038;50.166;18.908;2023-03-23T01:43:58;48.38;46.90;53.36;;
68599;Laerm;18038;50.166;18.908;2023-03-23T01:47:23;48.41;47.07;52.91;;
68599;Laerm;18038;50.166;18.908;2023-03-23T01:50:57;48.89;46.94;59.55;;
68599;Laerm;18038;50.166;18.908;2023-03-23T01:54:13;48.53;47.16;59.98;;
68599;Laerm;18038;50.166;18.908;2023-03-23T01:57:27;48.71;47.00;55.58;;
68599;Laerm;18038;50.166;18.908;2023-03-23T02:00:38;48.92;46.73;60.05;;
68599;Laerm;18038;50.166;18.908;2023-03-23T02:03:57;48.63;46.98;59.78;;
68599;Laerm;18038;50.166;18.908;2023-03-23T02:07:05;49.26;46.96;60.76;;
68599;Laerm;18038;50.166;18.908;2023-03-23T02:10:12;49.10;46.99;63.05;;
68599;Laerm;18038;50.166;18.908;2023-03-23T02:13:22;48.56;46.74;56.22;;
68599;Laerm;18038;50.166;18.908;2023-03-23T02:16:46;49.02;46.78;60.85;;
68599;Laerm;18038;50.166;18.908;2023-03-23T02:20:38;48.63;46.87;63.52;;
68599;Laerm;18038;50.166;18.908;2023-03-23T02:24:40;49.32;46.98;63.46;;
68599;Laerm;18038;50.166;18.908;2023-03-23T02:28:34;48.69;47.11;59.52;;
68599;Laerm;18038;50.166;18.908;2023-03-23T02:32:12;49.74;46.83;62.31;;
68599;Laerm;18038;50.166;18.908;2023-03-23T02:35:34;50.80;47.18;62.17;;
68599;Laerm;18038;50.166;18.908;2023-03-23T02:38:55;50.83;47.04;66.21;;
68599;Laerm;18038;50.166;18.908;2023-03-23T02:42:06;49.90;47.10;63.67;;
68599;Laerm;18038;50.166;18.908;2023-03-23T02:45:24;50.01;47.18;65.73;;
68599;Laerm;18038;50.166;18.908;2023-03-23T02:48:35;48.84;47.03;64.65;;
68599;Laerm;18038;50.166;18.908;2023-03-23T02:51:50;48.88;47.03;63.66;;
68599;Laerm;18038;50.166;18.908;2023-03-23T02:55:00;49.31;47.16;62.75;;
68599;Laerm;18038;50.166;18.908;2023-03-23T02:58:16;50.86;47.10;70.72;;
68599;Laerm;18038;50.166;18.908;2023-03-23T03:01:51;49.25;47.13;65.10;;
68599;Laerm;18038;50.166;18.908;2023-03-23T03:05:11;49.17;47.17;58.88;;
68599;Laerm;18038;50.166;18.908;2023-03-23T03:08:33;49.40;47.07;60.89;;
68599;Laerm;18038;50.166;18.908;2023-03-23T03:11:53;49.27;47.02;63.86;;
68599;Laerm;18038;50.166;18.908;2023-03-23T03:15:16;49.51;47.18;67.30;;
68599;Laerm;18038;50.166;18.908;2023-03-23T03:18:32;49.81;47.10;64.42;;
68599;Laerm;18038;50.166;18.908;2023-03-23T03:21:44;50.67;46.97;68.04;;
68599;Laerm;18038;50.166;18.908;2023-03-23T03:25:01;49.51;46.94;61.27;;
68599;Laerm;18038;50.166;18.908;2023-03-23T03:28:28;50.16;47.22;66.57;;
68599;Laerm;18038;50.166;18.908;2023-03-23T03:31:41;49.67;47.14;62.65;;
68599;Laerm;18038;50.166;18.908;2023-03-23T03:34:48;50.78;47.05;68.11;;
68599;Laerm;18038;50.166;18.908;2023-03-23T03:38:06;49.61;47.35;61.31;;
68599;Laerm;18038;50.166;18.908;2023-03-23T03:41:20;50.36;47.05;64.70;;
68599;Laerm;18038;50.166;18.908;2023-03-23T03:44:27;49.83;47.28;64.48;;
68599;Laerm;18038;50.166;18.908;2023-03-23T03:47:34;50.03;47.23;60.44;;
68599;Laerm;18038;50.166;18.908;2023-03-23T03:50:52;50.84;47.33;63.85;;
68599;Laerm;18038;50.166;18.908;2023-03-23T03:53:59;50.33;47.17;66.46;;
68599;Laerm;18038;50.166;18.908;2023-03-23T03:57:09;50.14;47.30;64.72;;
68599;Laerm;18038;50.166;18.908;2023-03-23T04:00:17;49.76;47.25;61.94;;
68599;Laerm;18038;50.166;18.908;2023-03-23T04:03:27;53.26;47.25;71.73;;
68599;Laerm;18038;50.166;18.908;2023-03-23T04:06:40;52.05;47.25;70.61;;
68599;Laerm;18038;50.166;18.908;2023-03-23T04:09:47;50.92;47.27;64.73;;
68599;Laerm;18038;50.166;18.908;2023-03-23T04:12:58;52.53;47.36;68.57;;
68599;Laerm;18038;50.166;18.908;2023-03-23T04:16:38;53.10;47.51;67.95;;
68599;Laerm;18038;50.166;18.908;2023-03-23T04:19:56;53.17;47.37;70.38;;
68599;Laerm;18038;50.166;18.908;2023-03-23T04:23:05;52.41;47.46;73.56;;
68599;Laerm;18038;50.166;18.908;2023-03-23T04:26:18;54.53;47.74;71.25;;
68599;Laerm;18038;50.166;18.908;2023-03-23T04:29:30;52.17;47.70;67.43;;
68599;Laerm;18038;50.166;18.908;2023-03-23T04:32:56;54.12;47.80;71.56;;
68599;Laerm;18038;50.166;18.908;2023-03-23T04:36:06;53.47;47.88;68.19;;
68599;Laerm;18038;50.166;18.908;2023-03-23T04:39:14;53.40;47.88;71.33;;
68599;Laerm;18038;50.166;18.908;2023-03-23T04:42:22;53.90;47.70;66.40;;
68599;Laerm;18038;50.166;18.908;2023-03-23T04:45:54;53.93;47.95;69.58;;
68599;Laerm;18038;50.166;18.908;2023-03-23T04:49:03;53.21;48.21;67.58;;
68599;Laerm;18038;50.166;18.908;2023-03-23T04:52:15;53.83;47.52;69.28;;
68599;Laerm;18038;50.166;18.908;2023-03-23T04:55:34;53.69;47.60;73.29;;
68599;Laerm;18038;50.166;18.908;2023-03-23T04:58:44;52.70;47.99;65.93;;
68599;Laerm;18038;50.166;18.908;2023-03-23T05:02:03;52.16;47.52;64.21;;
68599;Laerm;18038;50.166;18.908;2023-03-23T05:05:28;51.03;47.65;64.37;;
68599;Laerm;18038;50.166;18.908;2023-03-23T05:08:43;52.06;47.83;64.10;;
68599;Laerm;18038;50.166;18.908;2023-03-23T05:11:49;51.63;47.73;64.11;;
68599;Laerm;18038;50.166;18.908;2023-03-23T05:14:59;52.66;47.75;64.29;;
68599;Laerm;18038;50.166;18.908;2023-03-23T05:18:09;52.98;47.64;66.25;;
68599;Laerm;18038;50.166;18.908;2023-03-23T05:21:16;52.97;47.69;72.04;;
68599;Laerm;18038;50.166;18.908;2023-03-23T05:24:27;54.46;47.99;71.79;;
68599;Laerm;18038;50.166;18.908;2023-03-23T05:27:38;53.45;48.23;67.05;;
68599;Laerm;18038;50.166;18.908;2023-03-23T05:30:55;54.37;47.98;71.08;;
68599;Laerm;18038;50.166;18.908;2023-03-23T05:34:09;53.99;48.19;66.57;;
68599;Laerm;18038;50.166;18.908;2023-03-23T05:37:23;52.99;48.37;63.20;;
68599;Laerm;18038;50.166;18.908;2023-03-23T05:40:35;54.31;47.86;71.59;;
68599;Laerm;18038;50.166;18.908;2023-03-23T05:43:48;54.38;48.62;66.47;;
68599;Laerm;18038;50.166;18.908;2023-03-23T05:46:59;55.12;48.84;71.60;;
68599;Laerm;18038;50.166;18.908;2023-03-23T05:50:11;53.43;48.80;61.97;;
68599;Laerm;18038;50.166;18.908;2023-03-23T05:53:18;54.43;48.38;71.86;;
68599;Laerm;18038;50.166;18.908;2023-03-23T05:56:25;53.60;48.69;67.69;;
68599;Laerm;18038;50.166;18.908;2023-03-23T05:59:45;53.07;48.12;64.43;;
68599;Laerm;18038;50.166;18.908;2023-03-23T06:02:57;55.42;48.14;73.64;;
68599;Laerm;18038;50.166;18.908;2023-03-23T06:06:19;53.84;47.96;68.79;;
68599;Laerm;18038;50.166;18.908;2023-03-23T06:09:40;53.46;48.28;64.34;;
68599;Laerm;18038;50.166;18.908;2023-03-23T06:12:59;54.06;48.18;75.89;;
68599;Laerm;18038;50.166;18.908;2023-03-23T06:16:09;52.23;47.87;62.67;;
68599;Laerm;18038;50.166;18.908;2023-03-23T06:19:32;53.73;47.97;65.12;;
68599;Laerm;18038;50.166;18.908;2023-03-23T06:22:51;54.46;48.42;66.94;;
68599;Laerm;18038;50.166;18.908;2023-03-23T06:26:07;53.38;47.69;67.81;;
68599;Laerm;18038;50.166;18.908;2023-03-23T06:29:17;53.93;48.78;74.33;;
68599;Laerm;18038;50.166;18.908;2023-03-23T06:32:32;54.38;48.03;73.33;;
68599;Laerm;18038;50.166;18.908;2023-03-23T06:35:43;54.42;48.03;72.25;;
68599;Laerm;18038;50.166;18.908;2023-03-23T06:39:03;55.21;48.75;73.24;;
68599;Laerm;18038;50.166;18.908;2023-03-23T06:42:30;54.60;47.97;72.11;;
68599;Laerm;18038;50.166;18.908;2023-03-23T06:46:11;55.03;49.12;71.76;;
68599;Laerm;18038;50.166;18.908;2023-03-23T06:49:17;54.82;49.26;70.12;;
68599;Laerm;18038;50.166;18.908;2023-03-23T06:52:30;53.37;48.65;65.65;;
68599;Laerm;18038;50.166;18.908;2023-03-23T06:55:43;54.80;48.63;69.46;;
68599;Laerm;18038;50.166;18.908;2023-03-23T06:58:50;55.32;48.89;68.55;;
68599;Laerm;18038;50.166;18.908;2023-03-23T07:01:58;55.02;48.86;71.71;;
68599;Laerm;18038;50.166;18.908;2023-03-23T07:05:07;55.27;48.92;73.85;;
68599;Laerm;18038;50.166;18.908;2023-03-23T07:08:14;53.75;48.46;67.64;;
68599;Laerm;18038;50.166;18.908;2023-03-23T07:11:29;57.69;48.96;75.78;;
68599;Laerm;18038;50.166;18.908;2023-03-23T07:14:42;56.08;48.31;73.98;;
68599;Laerm;18038;50.166;18.908;2023-03-23T07:17:49;56.47;48.71;73.89;;
68599;Laerm;18038;50.166;18.908;2023-03-23T07:21:09;54.30;48.18;73.17;;
68599;Laerm;18038;50.166;18.908;2023-03-23T07:24:17;53.32;47.83;69.14;;
68599;Laerm;18038;50.166;18.908;2023-03-23T07:27:58;55.45;48.52;75.27;;
68599;Laerm;18038;50.166;18.908;2023-03-23T07:31:07;57.82;48.86;81.42;;
68599;Laerm;18038;50.166;18.908;2023-03-23T07:34:14;53.06;48.22;65.50;;
68599;Laerm;18038;50.166;18.908;2023-03-23T07:37:41;52.67;48.08;62.68;;
68599;Laerm;18038;50.166;18.908;2023-03-23T07:40:48;55.19;48.83;69.77;;
68599;Laerm;18038;50.166;18.908;2023-03-23T07:43:59;53.57;48.59;64.99;;
68599;Laerm;18038;50.166;18.908;2023-03-23T07:47:09;53.06;48.44;64.73;;
68599;Laerm;18038;50.166;18.908;2023-03-23T07:50:17;54.16;47.85;64.77;;
68599;Laerm;18038;50.166;18.908;2023-03-23T07:53:25;53.17;48.14;69.81;;
68599;Laerm;18038;50.166;18.908;2023-03-23T07:56:49;54.02;47.92;75.37;;
68599;Laerm;18038;50.166;18.908;2023-03-23T08:00:13;56.88;47.57;82.05;;
68599;Laerm;18038;50.166;18.908;2023-03-23T08:03:23;53.47;47.99;69.34;;
68599;Laerm;18038;50.166;18.908;2023-03-23T08:06:52;54.25;47.56;68.38;;
68599;Laerm;18038;50.166;18.908;2023-03-23T08:10:33;52.74;47.66;64.13;;
68599;Laerm;18038;50.166;18.908;2023-03-23T08:14:17;52.90;47.89;61.79;;
68599;Laerm;18038;50.166;18.908;2023-03-23T08:17:59;52.79;47.53;66.85;;
68599;Laerm;18038;50.166;18.908;2023-03-23T08:21:15;52.95;47.50;67.58;;
68599;Laerm;18038;50.166;18.908;2023-03-23T08:24:45;53.94;47.36;71.67;;
68599;Laerm;18038;50.166;18.908;2023-03-23T08:28:21;53.72;47.23;69.05;;
68599;Laerm;18038;50.166;18.908;2023-03-23T08:32:06;54.47;47.47;71.39;;
68599;Laerm;18038;50.166;18.908;2023-03-23T08:35:58;55.57;47.50;75.64;;
68599;Laerm;18038;50.166;18.908;2023-03-23T08:39:28;57.76;47.76;80.45;;
68599;Laerm;18038;50.166;18.908;2023-03-23T08:42:58;58.67;48.06;82.10;;
68599;Laerm;18038;50.166;18.908;2023-03-23T08:46:37;60.15;47.94;79.47;;
68599;Laerm;18038;50.166;18.908;2023-03-23T08:49:53;56.24;47.49;75.60;;
68599;Laerm;18038;50.166;18.908;2023-03-23T08:53:23;53.22;47.40;64.54;;
68599;Laerm;18038;50.166;18.908;2023-03-23T08:56:53;55.57;47.63;77.32;;
68599;Laerm;18038;50.166;18.908;2023-03-23T09:00:00;54.53;48.02;73.82;;
68599;Laerm;18038;50.166;18.908;2023-03-23T09:03:48;52.33;47.62;62.19;;
68599;Laerm;18038;50.166;18.908;2023-03-23T09:07:05;54.96;47.66;75.73;;
68599;Laerm;18038;50.166;18.908;2023-03-23T09:10:16;53.80;47.96;67.63;;
68599;Laerm;18038;50.166;18.908;2023-03-23T09:13:23;58.03;48.40;73.01;;
68599;Laerm;18038;50.166;18.908;2023-03-23T09:16:30;52.54;47.79;62.32;;
68599;Laerm;18038;50.166;18.908;2023-03-23T09:19:43;54.37;47.36;75.34;;
68599;Laerm;18038;50.166;18.908;2023-03-23T09:22:57;53.30;47.68;67.48;;
68599;Laerm;18038;50.166;18.908;2023-03-23T09:26:13;56.61;47.97;78.00;;
68599;Laerm;18038;50.166;18.908;2023-03-23T09:29:20;54.53;47.68;75.31;;
68599;Laerm;18038;50.166;18.908;2023-03-23T09:32:34;52.43;47.44;68.32;;
68599;Laerm;18038;50.166;18.908;2023-03-23T09:35:50;52.62;47.29;67.46;;
68599;Laerm;18038;50.166;18.908;2023-03-23T09:38:59;53.89;47.23;72.33;;
68599;Laerm;18038;50.166;18.908;2023-03-23T09:42:37;52.02;47.13;66.76;;
68599;Laerm;18038;50.166;18.908;2023-03-23T09:46:05;53.42;47.38;74.38;;
68599;Laerm;18038;50.166;18.908;2023-03-23T09:49:30;52.41;47.40;68.79;;
68599;Laerm;18038;50.166;18.908;2023-03-23T09:52:51;53.18;47.75;62.75;;
68599;Laerm;18038;50.166;18.908;2023-03-23T09:56:15;52.49;47.83;65.66;;
68599;Laerm;18038;50.166;18.908;2023-03-23T09:59:37;53.81;48.14;68.28;;
68599;Laerm;18038;50.166;18.908;2023-03-23T10:02:58;57.33;48.87;75.73;;
68599;Laerm;18038;50.166;18.908;2023-03-23T10:06:11;59.94;49.54;77.06;;
68599;Laerm;18038;50.166;18.908;2023-03-23T10:09:19;60.50;48.17;83.04;;
68599;Laerm;18038;50.166;18.908;2023-03-23T10:12:43;52.04;47.56;62.70;;
68599;Laerm;18038;50.166;18.908;2023-03-23T10:15:55;59.79;48.29;81.55;;
68599;Laerm;18038;50.166;18.908;2023-03-23T10:19:14;58.87;47.53;80.30;;
68599;Laerm;18038;50.166;18.908;2023-03-23T10:22:33;56.49;48.58;71.47;;
68599;Laerm;18038;50.166;18.908;2023-03-23T10:25:52;56.17;48.17;72.30;;
68599;Laerm;18038;50.166;18.908;2023-03-23T10:29:40;54.61;48.04;71.06;;
68599;Laerm;18038;50.166;18.908;2023-03-23T10:32:59;52.38;47.83;64.58;;
68599;Laerm;18038;50.166;18.908;2023-03-23T10:36:27;59.17;47.75;82.41;;
68599;Laerm;18038;50.166;18.908;2023-03-23T10:39:47;59.00;48.06;79.12;;
68599;Laerm;18038;50.166;18.908;2023-03-23T10:42:54;54.76;47.88;70.83;;
68599;Laerm;18038;50.166;18.908;2023-03-23T10:46:14;53.51;48.02;70.73;;
68599;Laerm;18038;50.166;18.908;2023-03-23T10:49:43;55.16;48.26;70.01;;
68599;Laerm;18038;50.166;18.908;2023-03-23T10:52:54;56.94;47.92;74.22;;
68599;Laerm;18038;50.166;18.908;2023-03-23T10:56:17;55.67;47.38;75.10;;
68599;Laerm;18038;50.166;18.908;2023-03-23T10:59:30;54.89;48.29;70.79;;
68599;Laerm;18038;50.166;18.908;2023-03-23T11:02:45;55.31;48.51;72.01;;
68599;Laerm;18038;50.166;18.908;2023-03-23T11:05:59;57.80;49.59;75.59;;
68599;Laerm;18038;50.166;18.908;2023-03-23T11:09:15;54.67;48.24;74.35;;
68599;Laerm;18038;50.166;18.908;2023-03-23T11:12:22;59.42;48.02;78.96;;
68599;Laerm;18038;50.166;18.908;2023-03-23T11:15:38;54.48;48.02;72.73;;
68599;Laerm;18038;50.166;18.908;2023-03-23T11:18:46;54.67;47.49;70.11;;
68599;Laerm;18038;50.166;18.908;2023-03-23T11:22:17;52.96;47.96;68.38;;
68599;Laerm;18038;50.166;18.908;2023-03-23T11:25:26;55.77;46.97;74.04;;
68599;Laerm;18038;50.166;18.908;2023-03-23T11:28:43;55.63;47.15;78.45;;
68599;Laerm;18038;50.166;18.908;2023-03-23T11:32:03;51.58;47.20;63.66;;
68599;Laerm;18038;50.166;18.908;2023-03-23T11:35:20;52.79;46.89;63.94;;
68599;Laerm;18038;50.166;18.908;2023-03-23T11:38:30;53.64;47.31;68.90;;
68599;Laerm;18038;50.166;18.908;2023-03-23T11:41:38;58.31;47.41;78.77;;
68599;Laerm;18038;50.166;18.908;2023-03-23T11:44:46;57.10;48.05;80.50;;
68599;Laerm;18038;50.166;18.908;2023-03-23T11:48:07;53.25;47.84;65.78;;
68599;Laerm;18038;50.166;18.908;2023-03-23T11:51:29;53.29;48.09;70.68;;
68599;Laerm;18038;50.166;18.908;2023-03-23T11:54:48;52.75;47.59;68.18;;
68599;Laerm;18038;50.166;18.908;2023-03-23T11:58:09;55.36;47.61;76.35;;
68599;Laerm;18038;50.166;18.908;2023-03-23T12:01:36;53.29;47.68;66.02;;
68599;Laerm;18038;50.166;18.908;2023-03-23T12:09:06;53.16;47.30;69.61;;
68599;Laerm;18038;50.166;18.908;2023-03-23T12:12:46;51.57;47.42;60.83;;
68599;Laerm;18038;50.166;18.908;2023-03-23T12:16:07;53.35;47.41;66.36;;
68599;Laerm;18038;50.166;18.908;2023-03-23T12:19:30;52.51;47.47;63.66;;
68599;Laerm;18038;50.166;18.908;2023-03-23T12:22:58;54.13;47.51;71.02;;
68599;Laerm;18038;50.166;18.908;2023-03-23T12:26:18;55.83;47.75;72.26;;
68599;Laerm;18038;50.166;18.908;2023-03-23T12:29:50;51.45;47.39;61.64;;
68599;Laerm;18038;50.166;18.908;2023-03-23T12:33:20;53.92;47.40;69.47;;
68599;Laerm;18038;50.166;18.908;2023-03-23T12:36:47;52.08;47.34;62.40;;
68599;Laerm;18038;50.166;18.908;2023-03-23T12:40:32;53.90;47.40;73.94;;
68599;Laerm;18038;50.166;18.908;2023-03-23T12:43:53;54.79;47.55;73.35;;
68599;Laerm;18038;50.166;18.908;2023-03-23T12:47:29;56.22;47.70;74.23;;
68599;Laerm;18038;50.166;18.908;2023-03-23T12:50:59;54.65;47.79;69.47;;
68599;Laerm;18038;50.166;18.908;2023-03-23T12:54:19;55.42;47.23;73.51;;
68599;Laerm;18038;50.166;18.908;2023-03-23T12:57:37;55.45;47.56;73.63;;
68599;Laerm;18038;50.166;18.908;2023-03-23T13:00:57;51.78;47.39;63.76;;
68599;Laerm;18038;50.166;18.908;2023-03-23T13:04:16;54.96;48.26;72.32;;
68599;Laerm;18038;50.166;18.908;2023-03-23T13:07:33;53.41;48.34;66.45;;
68599;Laerm;18038;50.166;18.908;2023-03-23T13:10:47;53.78;48.29;67.48;;
68599;Laerm;18038;50.166;18.908;2023-03-23T13:14:03;52.41;47.74;59.04;;
68599;Laerm;18038;50.166;18.908;2023-03-23T13:17:26;54.24;47.77;69.42;;
68599;Laerm;18038;50.166;18.908;2023-03-23T13:20:54;53.66;47.91;71.08;;
68599;Laerm;18038;50.166;18.908;2023-03-23T13:24:06;53.28;47.07;65.56;;
68599;Laerm;18038;50.166;18.908;2023-03-23T13:27:15;52.97;47.52;65.65;;
68599;Laerm;18038;50.166;18.908;2023-03-23T13:30:22;53.54;48.03;64.34;;
68599;Laerm;18038;50.166;18.908;2023-03-23T13:33:35;55.59;48.44;76.79;;
68599;Laerm;18038;50.166;18.908;2023-03-23T13:36:53;53.73;47.51;74.32;;
68599;Laerm;18038;50.166;18.908;2023-03-23T13:40:24;52.55;47.61;62.61;;
68599;Laerm;18038;50.166;18.908;2023-03-23T13:43:38;52.72;47.43;59.67;;
68599;Laerm;18038;50.166;18.908;2023-03-23T13:46:57;53.31;47.90;62.27;;
68599;Laerm;18038;50.166;18.908;2023-03-23T13:50:24;52.30;47.15;59.63;;
68599;Laerm;18038;50.166;18.908;2023-03-23T13:53:47;52.77;47.12;62.03;;
68599;Laerm;18038;50.166;18.908;2023-03-23T13:56:58;52.88;47.93;67.98;;
68599;Laerm;18038;50.166;18.908;2023-03-23T14:00:44;53.16;47.80;67.88;;
68599;Laerm;18038;50.166;18.908;2023-03-23T14:03:54;53.31;47.59;64.24;;
68599;Laerm;18038;50.166;18.908;2023-03-23T14:07:11;52.47;48.05;59.02;;
68599;Laerm;18038;50.166;18.908;2023-03-23T14:10:21;53.56;47.93;68.30;;
68599;Laerm;18038;50.166;18.908;2023-03-23T14:13:44;55.26;48.16;70.18;;
68599;Laerm;18038;50.166;18.908;2023-03-23T14:16:51;52.94;48.18;64.09;;
68599;Laerm;18038;50.166;18.908;2023-03-23T14:20:01;52.51;47.27;64.67;;
68599;Laerm;18038;50.166;18.908;2023-03-23T14:23:19;53.60;47.72;71.89;;
68599;Laerm;18038;50.166;18.908;2023-03-23T14:26:29;52.27;47.77;63.07;;
68599;Laerm;18038;50.166;18.908;2023-03-23T14:29:39;54.86;47.81;72.46;;
68599;Laerm;18038;50.166;18.908;2023-03-23T14:32:51;51.94;47.15;60.94;;
68599;Laerm;18038;50.166;18.908;2023-03-23T14:36:00;54.40;48.10;70.02;;
68599;Laerm;18038;50.166;18.908;2023-03-23T14:39:22;53.43;47.33;71.61;;
68599;Laerm;18038;50.166;18.908;2023-03-23T14:42:35;55.37;47.77;73.83;;
68599;Laerm;18038;50.166;18.908;2023-03-23T14:45:45;52.05;47.35;60.87;;
68599;Laerm;18038;50.166;18.908;2023-03-23T14:48:56;52.41;47.63;66.89;;
68599;Laerm;18038;50.166;18.908;2023-03-23T14:52:11;52.92;47.38;64.98;;
68599;Laerm;18038;50.166;18.908;2023-03-23T14:55:22;54.46;47.98;67.10;;
68599;Laerm;18038;50.166;18.908;2023-03-23T14:58:33;52.38;46.81;65.80;;
68599;Laerm;18038;50.166;18.908;2023-03-23T15:01:43;52.47;47.13;66.68;;
68599;Laerm;18038;50.166;18.908;2023-03-23T15:04:59;52.48;47.38;62.58;;
68599;Laerm;18038;50.166;18.908;2023-03-23T15:08:13;54.58;47.51;80.89;;
68599;Laerm;18038;50.166;18.908;2023-03-23T15:11:24;52.35;47.61;63.86;;
68599;Laerm;18038;50.166;18.908;2023-03-23T15:14:45;52.77;47.46;65.18;;
68599;Laerm;18038;50.166;18.908;2023-03-23T15:17:53;53.15;48.20;63.97;;
68599;Laerm;18038;50.166;18.908;2023-03-23T15:21:11;53.16;47.75;66.50;;
68599;Laerm;18038;50.166;18.908;2023-03-23T15:24:26;52.22;47.59;58.46;;
68599;Laerm;18038;50.166;18.908;2023-03-23T15:27:42;54.40;48.01;68.41;;
68599;Laerm;18038;50.166;18.908;2023-03-23T15:31:00;52.57;48.27;65.28;;
68599;Laerm;18038;50.166;18.908;2023-03-23T15:34:30;53.09;48.35;64.22;;
68599;Laerm;18038;50.166;18.908;2023-03-23T15:37:44;54.10;48.29;66.87;;
68599;Laerm;18038;50.166;18.908;2023-03-23T15:40:54;52.07;47.66;59.16;;
68599;Laerm;18038;50.166;18.908;2023-03-23T15:44:22;52.69;47.35;62.99;;
68599;Laerm;18038;50.166;18.908;2023-03-23T15:47:47;53.42;47.93;73.28;;
68599;Laerm;18038;50.166;18.908;2023-03-23T15:51:04;55.76;48.03;71.71;;
68599;Laerm;18038;50.166;18.908;2023-03-23T15:54:15;53.06;47.73;61.40;;
68599;Laerm;18038;50.166;18.908;2023-03-23T15:57:22;52.47;47.46;64.56;;
68599;Laerm;18038;50.166;18.908;2023-03-23T16:00:29;53.03;47.54;65.63;;
68599;Laerm;18038;50.166;18.908;2023-03-23T16:03:46;54.49;47.69;78.16;;
68599;Laerm;18038;50.166;18.908;2023-03-23T16:06:56;52.67;47.94;70.54;;
68599;Laerm;18038;50.166;18.908;2023-03-23T16:10:07;55.27;47.72;79.12;;
68599;Laerm;18038;50.166;18.908;2023-03-23T16:13:21;54.84;47.75;75.36;;
68599;Laerm;18038;50.166;18.908;2023-03-23T16:16:33;54.16;47.89;75.15;;
68599;Laerm;18038;50.166;18.908;2023-03-23T16:19:43;53.72;47.41;74.43;;
68599;Laerm;18038;50.166;18.908;2023-03-23T16:22:51;52.03;47.55;60.45;;
68599;Laerm;18038;50.166;18.908;2023-03-23T16:26:00;51.42;46.98;59.90;;
68599;Laerm;18038;50.166;18.908;2023-03-23T16:29:13;51.57;47.18;63.48;;
68599;Laerm;18038;50.166;18.908;2023-03-23T16:32:45;51.88;47.12;70.34;;
68599;Laerm;18038;50.166;18.908;2023-03-23T16:35:57;51.79;46.98;62.94;;
68599;Laerm;18038;50.166;18.908;2023-03-23T16:39:03;52.03;47.19;59.21;;
68599;Laerm;18038;50.166;18.908;2023-03-23T16:42:11;53.71;47.30;64.55;;
68599;Laerm;18038;50.166;18.908;2023-03-23T16:45:18;56.26;48.56;66.53;;
68599;Laerm;18038;50.166;18.908;2023-03-23T16:48:27;51.45;46.92;62.26;;
68599;Laerm;18038;50.166;18.908;2023-03-23T16:51:35;52.04;47.30;61.66;;
68599;Laerm;18038;50.166;18.908;2023-03-23T16:55:01;52.01;47.26;62.63;;
68599;Laerm;18038;50.166;18.908;2023-03-23T16:58:08;51.57;47.15;61.16;;
68599;Laerm;18038;50.166;18.908;2023-03-23T17:01:27;52.16;47.07;63.04;;
68599;Laerm;18038;50.166;18.908;2023-03-23T17:05:14;51.46;46.81;58.60;;
68599;Laerm;18038;50.166;18.908;2023-03-23T17:08:23;55.45;47.21;69.37;;
68599;Laerm;18038;50.166;18.908;2023-03-23T17:11:31;50.59;47.00;59.74;;
68599;Laerm;18038;50.166;18.908;2023-03-23T17:14:38;50.89;47.03;57.47;;
68599;Laerm;18038;50.166;18.908;2023-03-23T17:17:44;50.54;47.12;64.13;;
68599;Laerm;18038;50.166;18.908;2023-03-23T17:20:52;51.77;46.86;68.03;;
68599;Laerm;18038;50.166;18.908;2023-03-23T17:24:08;51.29;47.13;58.06;;
68599;Laerm;18038;50.166;18.908;2023-03-23T17:27:22;51.06;46.96;58.98;;
68599;Laerm;18038;50.166;18.908;2023-03-23T17:30:29;51.42;47.11;60.69;;
68599;Laerm;18038;50.166;18.908;2023-03-23T17:33:38;50.80;46.88;61.80;;
68599;Laerm;18038;50.166;18.908;2023-03-23T17:36:44;50.88;46.86;59.52;;
68599;Laerm;18038;50.166;18.908;2023-03-23T17:39:54;56.64;47.19;82.07;;
68599;Laerm;18038;50.166;18.908;2023-03-23T17:43:00;51.13;47.21;58.27;;
68599;Laerm;18038;50.166;18.908;2023-03-23T17:46:39;50.96;46.95;58.10;;
68599;Laerm;18038;50.166;18.908;2023-03-23T17:49:45;51.08;47.12;63.97;;
68599;Laerm;18038;50.166;18.908;2023-03-23T17:52:52;50.69;47.03;62.16;;
68599;Laerm;18038;50.166;18.908;2023-03-23T17:56:14;51.01;47.37;57.68;;
68599;Laerm;18038;50.166;18.908;2023-03-23T17:59:21;53.45;47.17;67.35;;
68599;Laerm;18038;50.166;18.908;2023-03-23T18:02:27;50.85;46.85;58.88;;
68599;Laerm;18038;50.166;18.908;2023-03-23T18:05:41;50.44;46.71;58.76;;
68599;Laerm;18038;50.166;18.908;2023-03-23T18:08:47;50.20;46.81;56.74;;